Time;durP1;ratioP1;P1;durP2;ratioP2;P2;SDS_P1;SDS_P2;PMS_P1;PMS_P2;Temp;Humidity;BMP_temperature;BMP_pressure;BME280_temperature;BME280_humidity;BME280_pressure;Samples;Min_cycle;Max_cycle;Signal;HPM_P1;HPM_P2
2024/01/30 00:01:57;;;;;;;5.93;3.13;;;;;;;17.85;100.00;102353.53;5005925;28;20049;-44
2024/01/30 00:04:24;;;;;;;7.78;3.58;;;;;;;17.85;100.00;102352.75;5007595;28;20042;-43
2024/01/30 00:06:52;;;;;;;6.72;3.00;;;;;;;17.85;100.00;102350.69;5002782;28;20111;-43
2024/01/30 00:09:19;;;;;;;6.20;2.72;;;;;;;17.84;100.00;102356.75;5007784;28;20057;-45
2024/01/30 00:11:46;;;;;;;6.35;3.45;;;;;;;17.85;100.00;102352.75;5004531;28;20058;-43
2024/01/30 00:14:12;;;;;;;7.25;2.92;;;;;;;17.85;100.00;102349.94;5007396;28;20054;-43
2024/01/30 00:16:39;;;;;;;5.85;2.90;;;;;;;17.84;100.00;102351.13;4997508;28;20133;-44
2024/01/30 00:19:06;;;;;;;8.00;2.60;;;;;;;17.86;100.00;102340.25;5002988;28;20100;-45
2024/01/30 00:21:34;;;;;;;6.45;3.20;;;;;;;17.85;100.00;102344.31;4993487;28;20062;-46
2024/01/30 00:24:01;;;;;;;7.97;3.08;;;;;;;17.87;100.00;102339.03;5003850;28;20050;-43
2024/01/30 00:26:28;;;;;;;5.13;2.60;;;;;;;17.88;100.00;102340.59;5001183;28;20058;-43
2024/01/30 00:28:54;;;;;;;8.10;3.42;;;;;;;17.87;100.00;102337.00;5009827;28;20482;-44
2024/01/30 00:31:21;;;;;;;5.60;2.90;;;;;;;17.87;100.00;102336.22;5008512;28;20101;-43
2024/01/30 00:33:47;;;;;;;6.65;3.22;;;;;;;17.87;100.00;102336.22;5009564;28;20042;-43
2024/01/30 00:36:14;;;;;;;6.57;2.95;;;;;;;17.87;100.00;102341.84;5004444;28;20042;-44
2024/01/30 00:38:40;;;;;;;6.18;2.90;;;;;;;17.87;100.00;102334.19;4998179;28;20046;-46
2024/01/30 00:41:08;;;;;;;5.63;2.85;;;;;;;17.86;100.00;102327.00;4999569;28;20041;-44
2024/01/30 00:43:35;;;;;;;6.93;3.20;;;;;;;17.86;100.00;102323.38;5014583;28;20045;-44
2024/01/30 00:46:03;;;;;;;7.10;3.55;;;;;;;17.87;100.00;102327.78;4999058;28;20038;-46
2024/01/30 00:48:29;;;;;;;8.68;3.10;;;;;;;17.88;100.00;102329.34;5002373;28;20046;-45
2024/01/30 00:50:56;;;;;;;8.02;3.10;;;;;;;17.86;100.00;102323.38;5003323;28;20452;-44
2024/01/30 00:53:22;;;;;;;5.13;2.78;;;;;;;17.88;100.00;102329.34;5000419;28;20148;-45
2024/01/30 00:55:49;;;;;;;5.65;3.17;;;;;;;17.86;100.00;102332.63;5012355;28;20069;-44
2024/01/30 00:58:15;;;;;;;6.85;3.03;;;;;;;17.86;100.00;102332.63;5002466;28;20045;-43
2024/01/30 01:00:42;;;;;;;5.93;3.20;;;;;;;17.86;100.00;102326.19;5001176;28;20052;-44
2024/01/30 01:03:09;;;;;;;5.72;2.95;;;;;;;17.87;100.00;102325.75;5001527;28;20052;-44
2024/01/30 01:05:35;;;;;;;5.97;2.75;;;;;;;17.85;100.00;102325.38;4995320;28;20133;-44
2024/01/30 01:08:02;;;;;;;6.57;3.10;;;;;;;17.87;100.00;102320.13;5005238;28;20523;-44
2024/01/30 01:10:28;;;;;;;5.53;3.10;;;;;;;17.87;100.00;102320.13;5005451;28;20488;-44
2024/01/30 01:12:55;;;;;;;8.00;3.20;;;;;;;17.87;100.00;102322.94;4999542;28;20061;-45
2024/01/30 01:15:21;;;;;;;5.90;2.92;;;;;;;17.87;100.00;102327.78;4998359;28;20050;-44
2024/01/30 01:17:48;;;;;;;7.20;2.83;;;;;;;17.87;100.00;102322.13;5001587;28;20140;-44
2024/01/30 01:20:15;;;;;;;5.72;2.67;;;;;;;17.88;100.00;102324.53;5003503;28;20500;-45
2024/01/30 01:22:42;;;;;;;9.02;2.97;;;;;;;17.87;100.00;102327.78;5005178;28;20050;-45
2024/01/30 01:25:10;;;;;;;7.03;2.70;;;;;;;17.85;100.00;102324.59;5000624;28;20073;-46
2024/01/30 01:27:40;;;;;;;5.85;2.90;;;;;;;17.83;100.00;102319.41;4998612;28;20054;-45
2024/01/30 01:30:11;;;;;;;6.43;2.78;;;;;;;17.84;100.00;102328.63;5004609;28;20337;-47
2024/01/30 01:32:38;;;;;;;6.07;2.90;;;;;;;17.85;100.00;102321.78;5000498;28;20478;-44
2024/01/30 01:35:05;;;;;;;6.65;3.45;;;;;;;17.84;100.00;102328.63;5004733;28;20129;-44
2024/01/30 01:37:32;;;;;;;5.60;2.60;;;;;;;17.82;100.00;102320.59;5002094;28;20054;-45
2024/01/30 01:40:00;;;;;;;6.00;2.92;;;;;;;17.82;100.00;102328.28;5003471;28;20580;-45
2024/01/30 01:42:26;;;;;;;6.88;2.95;;;;;;;17.81;100.00;102326.66;5007604;28;20568;-44
2024/01/30 01:44:53;;;;;;;8.05;3.22;;;;;;;17.82;100.00;102329.06;5007680;28;20053;-46
2024/01/30 01:47:20;;;;;;;7.72;2.75;;;;;;;17.82;100.00;102325.47;5012271;28;20058;-46
2024/01/30 01:49:47;;;;;;;5.30;2.70;;;;;;;17.82;100.00;102319.84;5005735;28;20444;-45
2024/01/30 01:52:14;;;;;;;5.10;2.50;;;;;;;17.81;100.00;102318.22;5008878;28;20074;-46
2024/01/30 01:54:41;;;;;;;4.97;2.65;;;;;;;17.82;100.00;102314.22;5008658;28;20046;-47
2024/01/30 01:57:07;;;;;;;5.35;2.80;;;;;;;17.82;100.00;102302.97;5005105;28;20516;-47
2024/01/30 01:59:34;;;;;;;4.28;2.80;;;;;;;17.82;100.00;102305.78;4999063;28;20562;-49
2024/01/30 02:02:03;;;;;;;7.90;3.00;;;;;;;17.81;100.00;102306.97;4999056;28;20046;-44
2024/01/30 02:04:30;;;;;;;4.35;2.45;;;;;;;17.81;100.00;102304.97;5013298;28;20510;-43
2024/01/30 02:06:56;;;;;;;6.03;3.00;;;;;;;17.81;100.00;102306.97;5007970;28;20080;-48
2024/01/30 02:09:23;;;;;;;4.53;2.50;;;;;;;17.80;100.00;102303.38;5014521;28;20050;-45
2024/01/30 02:11:50;;;;;;;5.53;2.95;;;;;;;17.80;100.00;102306.19;5004983;28;20493;-46
2024/01/30 02:14:16;;;;;;;5.53;2.90;;;;;;;17.81;100.00;102306.97;5008855;28;20600;-42
2024/01/30 02:16:43;;;;;;;4.63;2.60;;;;;;;17.80;100.00;102305.38;5008438;28;20059;-45
2024/01/30 02:19:10;;;;;;;4.35;2.58;;;;;;;17.80;100.00;102299.75;5006277;28;20046;-45
2024/01/30 02:21:37;;;;;;;5.22;2.55;;;;;;;17.80;100.00;102299.75;5009648;28;20504;-46
2024/01/30 02:24:05;;;;;;;5.47;2.58;;;;;;;17.79;100.00;102292.56;5004228;28;20056;-48
2024/01/30 02:26:31;;;;;;;6.15;2.78;;;;;;;17.81;100.00;102295.72;5003106;28;20050;-44
2024/01/30 02:28:58;;;;;;;6.25;2.60;;;;;;;17.82;100.00;102297.31;5004745;28;20074;-46
2024/01/30 02:31:25;;;;;;;5.43;2.70;;;;;;;17.81;100.00;102295.72;5002496;28;20084;-46
2024/01/30 02:33:52;;;;;;;7.35;2.75;;;;;;;17.80;100.00;102282.88;5010308;28;20112;-46
2024/01/30 02:36:19;;;;;;;5.45;2.60;;;;;;;17.79;100.00;102279.28;5002851;28;20071;-46
2024/01/30 02:38:46;;;;;;;7.47;2.60;;;;;;;17.78;100.00;102280.50;4996559;28;20049;-45
2024/01/30 02:41:13;;;;;;;4.63;2.70;;;;;;;17.80;100.00;102280.06;5015349;28;20050;-45
2024/01/30 02:43:39;;;;;;;7.30;2.65;;;;;;;17.79;100.00;102281.31;5003296;28;20073;-47
2024/01/30 02:46:06;;;;;;;6.03;2.65;;;;;;;17.80;100.00;102268.81;5008383;28;20136;-44
2024/01/30 02:48:32;;;;;;;4.95;2.50;;;;;;;17.77;100.00;102273.28;5014626;28;20519;-45
2024/01/30 02:50:59;;;;;;;5.13;2.60;;;;;;;17.79;100.00;102273.63;4992838;28;20046;-45
2024/01/30 02:53:25;;;;;;;7.18;2.72;;;;;;;17.78;100.00;102274.09;5001468;28;20523;-46
2024/01/30 02:55:52;;;;;;;6.05;2.72;;;;;;;17.78;100.00;102269.25;5006966;28;20132;-46
2024/01/30 02:58:18;;;;;;;8.73;2.80;;;;;;;17.78;100.00;102260.03;4999603;28;20085;-45
2024/01/30 03:00:45;;;;;;;3.97;2.20;;;;;;;17.76;100.00;102259.66;5010234;28;20054;-46
2024/01/30 03:03:12;;;;;;;5.22;2.50;;;;;;;17.80;100.00;102260.38;5002919;28;20544;-45
2024/01/30 03:05:38;;;;;;;7.65;3.40;;;;;;;17.80;100.00;102258.38;5003850;28;20104;-46
2024/01/30 03:08:05;;;;;;;8.55;2.50;;;;;;;17.81;100.00;102253.53;5006488;28;20050;-48
2024/01/30 03:10:32;;;;;;;6.32;2.78;;;;;;;17.81;100.00;102242.25;5007592;28;20065;-44
2024/01/30 03:12:58;;;;;;;5.50;2.67;;;;;;;17.81;100.00;102254.31;5001527;28;20045;-44
2024/01/30 03:15:25;;;;;;;6.70;2.97;;;;;;;17.79;100.00;102251.13;5002272;28;20512;-48
2024/01/30 03:17:53;;;;;;;4.57;2.42;;;;;;;17.79;100.00;102244.72;5000605;28;20141;-44
2024/01/30 03:20:20;;;;;;;10.35;2.88;;;;;;;17.79;100.00;102248.31;5006661;28;20046;-44
2024/01/30 03:22:46;;;;;;;8.45;2.30;;;;;;;17.79;100.00;102245.50;5002081;28;20050;-45
2024/01/30 03:25:13;;;;;;;6.97;2.53;;;;;;;17.77;100.00;102245.16;5011310;28;20049;-46
2024/01/30 03:27:39;;;;;;;8.77;3.47;;;;;;;17.78;100.00;102243.94;5006714;28;20396;-45
2024/01/30 03:30:06;;;;;;;5.53;2.42;;;;;;;17.77;100.00;102247.97;5002041;28;20084;-46
2024/01/30 03:32:33;;;;;;;4.65;2.10;;;;;;;17.77;100.00;102247.97;5012437;28;20104;-44
2024/01/30 03:35:00;;;;;;;5.85;2.53;;;;;;;17.77;100.00;102244.34;5007521;28;20130;-48
2024/01/30 03:37:26;;;;;;;4.85;2.38;;;;;;;17.76;100.00;102249.22;5001495;28;20062;-46
2024/01/30 03:39:53;;;;;;;5.95;2.40;;;;;;;17.76;100.00;102243.59;5001619;28;20084;-46
2024/01/30 03:42:20;;;;;;;6.90;2.63;;;;;;;17.76;100.00;102237.97;5002053;28;20054;-47
2024/01/30 03:44:46;;;;;;;6.15;2.38;;;;;;;17.76;100.00;102239.97;5007321;28;20516;-45
2024/01/30 03:47:13;;;;;;;3.50;2.25;;;;;;;17.76;100.00;102237.97;5001807;28;20080;-44
2024/01/30 03:49:40;;;;;;;5.47;2.15;;;;;;;17.76;100.00;102231.53;4995357;28;20138;-45
2024/01/30 03:52:06;;;;;;;4.35;2.40;;;;;;;17.75;100.00;102235.56;4998815;28;20050;-47
2024/01/30 03:54:33;;;;;;;7.20;3.22;;;;;;;17.74;100.00;102223.53;5000095;28;20046;-45
2024/01/30 03:56:59;;;;;;;5.45;2.55;;;;;;;17.73;100.00;102226.75;4997847;28;20081;-44
2024/01/30 03:59:26;;;;;;;4.22;2.35;;;;;;;17.73;100.00;102227.56;5001593;28;20078;-45
2024/01/30 04:01:52;;;;;;;4.13;2.40;;;;;;;17.72;100.00;102219.56;5001069;28;20047;-47
2024/01/30 04:04:19;;;;;;;5.20;2.70;;;;;;;17.72;100.00;102223.13;5008870;28;20053;-45
2024/01/30 04:06:46;;;;;;;4.45;2.45;;;;;;;17.72;100.00;102216.75;5006504;28;20054;-44
2024/01/30 04:09:13;;;;;;;5.30;2.45;;;;;;;17.72;100.00;102216.75;5002775;28;20152;-46
2024/01/30 04:11:40;;;;;;;3.80;2.10;;;;;;;17.71;100.00;102218.75;5004157;28;20053;-45
2024/01/30 04:14:07;;;;;;;5.07;2.38;;;;;;;17.70;100.00;102217.16;5001229;28;20203;-46
2024/01/30 04:16:34;;;;;;;5.43;2.58;;;;;;;17.71;100.00;102212.31;5004031;28;20046;-44
2024/01/30 04:19:00;;;;;;;5.97;2.60;;;;;;;17.70;100.00;102205.13;5004171;28;20138;-44
2024/01/30 04:21:27;;;;;;;5.88;2.80;;;;;;;17.69;100.00;102207.16;5004289;28;20156;-46
2024/01/30 04:23:53;;;;;;;6.40;2.53;;;;;;;17.69;100.00;102197.91;5002070;28;20570;-45
2024/01/30 04:26:20;;;;;;;4.68;2.35;;;;;;;17.68;100.00;102205.53;5006031;28;20133;-44
2024/01/30 04:28:46;;;;;;;5.40;2.42;;;;;;;17.69;100.00;102203.53;5006668;28;20479;-43
2024/01/30 04:31:13;;;;;;;6.10;2.40;;;;;;;17.68;100.00;102196.34;5001795;28;20167;-44
2024/01/30 04:33:39;;;;;;;6.15;2.58;;;;;;;17.67;100.00;102195.53;5004306;28;20046;-43
2024/01/30 04:36:10;;;;;;;4.82;2.67;;;;;;;17.66;100.00;102196.75;5007802;28;20049;-43
2024/01/30 04:38:38;;;;;;;3.65;2.33;;;;;;;17.66;100.00;102191.13;5002220;28;20480;-45
2024/01/30 04:41:05;;;;;;;6.72;2.33;;;;;;;17.67;100.00;102194.72;5004766;28;20103;-44
2024/01/30 04:43:31;;;;;;;5.18;2.10;;;;;;;17.66;100.00;102190.34;5005987;28;20054;-43
2024/01/30 04:45:58;;;;;;;4.57;2.30;;;;;;;17.67;100.00;102194.72;4999249;28;20053;-45
2024/01/30 04:48:24;;;;;;;4.88;2.50;;;;;;;17.66;100.00;102198.78;5005235;28;20060;-45
2024/01/30 04:50:51;;;;;;;4.80;2.60;;;;;;;17.64;100.00;102196.38;5005282;28;20065;-47
2024/01/30 04:53:18;;;;;;;4.93;2.63;;;;;;;17.64;100.00;102204.81;5000673;28;20131;-45
2024/01/30 04:55:44;;;;;;;5.18;2.45;;;;;;;17.65;100.00;102205.63;4996499;28;20078;-45
2024/01/30 04:58:11;;;;;;;4.18;2.30;;;;;;;17.63;100.00;102208.06;5001343;28;20145;-46
2024/01/30 05:00:37;;;;;;;4.50;2.15;;;;;;;17.64;100.00;102204.03;4998544;28;20406;-46
2024/01/30 05:03:04;;;;;;;4.65;2.30;;;;;;;17.62;100.00;102195.25;5001498;28;20534;-47
2024/01/30 05:05:30;;;;;;;6.28;2.25;;;;;;;17.62;100.00;102198.81;5003863;28;20046;-45
2024/01/30 05:07:57;;;;;;;4.75;2.53;;;;;;;17.62;100.00;102198.81;4996527;28;20054;-45
2024/01/30 05:10:23;;;;;;;4.38;2.50;;;;;;;17.62;100.00;102200.88;5007439;28;20054;-45
2024/01/30 05:12:50;;;;;;;3.17;2.22;;;;;;;17.62;100.00;102198.81;4998518;28;20058;-44
2024/01/30 05:15:17;;;;;;;4.47;2.22;;;;;;;17.61;100.00;102204.91;5002107;28;20505;-45
2024/01/30 05:17:43;;;;;;;6.25;2.40;;;;;;;17.62;100.00;102195.25;5003238;28;20081;-46
2024/01/30 05:20:10;;;;;;;4.63;2.22;;;;;;;17.61;100.00;102199.28;5004407;28;20046;-45
2024/01/30 05:22:37;;;;;;;3.95;2.15;;;;;;;17.60;100.00;102200.50;5001923;28;20049;-45
2024/01/30 05:25:05;;;;;;;5.10;2.20;;;;;;;17.60;100.00;102195.66;5005811;28;20077;-45
2024/01/30 05:27:31;;;;;;;4.95;2.50;;;;;;;17.60;100.00;102197.66;5003955;28;20057;-47
2024/01/30 05:29:58;;;;;;;4.55;2.40;;;;;;;17.60;100.00;102190.03;5001884;28;20042;-48
2024/01/30 05:32:24;;;;;;;4.13;2.13;;;;;;;17.60;100.00;102195.66;5005945;28;20113;-47
2024/01/30 05:34:51;;;;;;;4.07;2.28;;;;;;;17.60;100.00;102192.06;5003283;28;20232;-48
2024/01/30 05:37:17;;;;;;;4.57;2.45;;;;;;;17.58;100.00;102186.84;5000910;28;20656;-46
2024/01/30 05:39:44;;;;;;;4.03;2.10;;;;;;;17.60;100.00;102192.06;5004425;28;20045;-46
2024/01/30 05:42:11;;;;;;;5.05;2.55;;;;;;;17.59;100.00;102193.28;5001546;28;20140;-46
2024/01/30 05:44:38;;;;;;;5.68;2.75;;;;;;;17.57;100.00;102190.91;5005384;28;20053;-46
2024/01/30 05:47:04;;;;;;;4.30;2.10;;;;;;;17.59;100.00;102190.47;5003116;28;20042;-45
2024/01/30 05:49:31;;;;;;;5.60;2.30;;;;;;;17.58;100.00;102188.91;5005644;28;20065;-45
2024/01/30 05:51:57;;;;;;;3.42;1.98;;;;;;;17.58;100.00;102188.91;5001613;28;20475;-44
2024/01/30 05:54:24;;;;;;;4.95;2.20;;;;;;;17.58;100.00;102191.69;5005098;28;20088;-48
2024/01/30 05:56:51;;;;;;;4.43;2.20;;;;;;;17.57;100.00;102190.91;5003017;28;20054;-45
2024/01/30 05:59:17;;;;;;;3.83;2.40;;;;;;;17.56;100.00;102191.31;5004311;28;20046;-52
2024/01/30 06:01:48;;;;;;;5.78;2.60;;;;;;;17.56;100.00;102196.94;5002025;28;20077;-48
2024/01/30 06:04:15;;;;;;;4.50;2.13;;;;;;;17.56;100.00;102197.75;5002635;28;20082;-43
2024/01/30 06:06:41;;;;;;;4.47;2.10;;;;;;;17.56;100.00;102194.13;4999511;28;20101;-46
2024/01/30 06:09:12;;;;;;;4.60;2.20;;;;;;;17.57;100.00;102195.72;5004333;28;20045;-45
2024/01/30 06:11:39;;;;;;;3.85;1.90;;;;;;;17.57;100.00;102190.09;5003314;28;20062;-48
2024/01/30 06:14:05;;;;;;;5.57;2.30;;;;;;;17.57;100.00;102190.09;5001929;28;20042;-48
2024/01/30 06:16:32;;;;;;;7.43;2.50;;;;;;;17.56;100.00;102192.13;5000439;28;20137;-44
2024/01/30 06:18:59;;;;;;;4.43;2.35;;;;;;;17.56;100.00;102188.50;5004015;28;20528;-45
2024/01/30 06:21:25;;;;;;;5.00;2.30;;;;;;;17.57;100.00;102187.28;5000968;28;20053;-44
2024/01/30 06:23:52;;;;;;;4.72;2.00;;;;;;;17.56;100.00;102194.13;5006466;28;20046;-44
2024/01/30 06:26:18;;;;;;;3.80;2.13;;;;;;;17.56;100.00;102196.94;5001295;28;20050;-44
2024/01/30 06:28:45;;;;;;;3.78;2.00;;;;;;;17.55;100.00;102193.34;5006113;28;20049;-46
2024/01/30 06:31:11;;;;;;;4.72;2.33;;;;;;;17.55;100.00;102186.94;5004714;28;20131;-45
2024/01/30 06:33:38;;;;;;;3.65;2.30;;;;;;;17.55;100.00;102193.34;5007135;28;20072;-45
2024/01/30 06:36:05;;;;;;;4.15;2.38;;;;;;;17.55;100.00;102195.38;5003387;28;20054;-47
2024/01/30 06:38:31;;;;;;;4.60;2.28;;;;;;;17.56;100.00;102191.31;5008990;28;20081;-44
2024/01/30 06:40:58;;;;;;;4.60;2.45;;;;;;;17.56;100.00;102192.13;5002995;28;20147;-45
2024/01/30 06:43:24;;;;;;;4.97;2.17;;;;;;;17.56;100.00;102182.88;5004154;28;20505;-45
2024/01/30 06:45:51;;;;;;;6.88;3.03;;;;;;;17.55;100.00;102187.72;5005454;28;20111;-43
2024/01/30 06:48:18;;;;;;;5.63;2.33;;;;;;;17.56;100.00;102188.50;5003589;28;20050;-44
2024/01/30 06:50:45;;;;;;;2.75;2.03;;;;;;;17.56;100.00;102185.69;5002363;28;20050;-45
2024/01/30 06:53:12;;;;;;;5.53;2.28;;;;;;;17.55;100.00;102184.91;5004008;28;20504;-46
2024/01/30 06:55:38;;;;;;;4.70;2.40;;;;;;;17.56;100.00;102178.06;5005672;28;20123;-46
2024/01/30 06:58:05;;;;;;;4.22;2.30;;;;;;;17.56;100.00;102174.47;5005005;28;20574;-46
2024/01/30 07:00:31;;;;;;;4.47;2.03;;;;;;;17.55;100.00;102179.28;5003873;28;20056;-44
2024/01/30 07:02:58;;;;;;;5.05;2.47;;;;;;;17.55;100.00;102178.50;5005411;28;20522;-46
2024/01/30 07:05:24;;;;;;;3.60;2.13;;;;;;;17.55;100.00;102192.56;5004914;28;20050;-46
2024/01/30 07:07:51;;;;;;;4.15;2.10;;;;;;;17.55;100.00;102198.19;5008302;28;20523;-44
2024/01/30 07:10:18;;;;;;;4.68;2.15;;;;;;;17.55;100.00;102196.16;5004337;28;20045;-44
2024/01/30 07:12:44;;;;;;;2.90;2.03;;;;;;;17.56;100.00;102196.94;5006636;28;20401;-45
2024/01/30 07:15:12;;;;;;;7.30;2.35;;;;;;;17.53;100.00;102195.81;5002770;28;21874;-46
2024/01/30 07:17:38;;;;;;;3.00;1.98;;;;;;;17.55;100.00;102193.34;5007273;28;20065;-45
2024/01/30 07:20:06;;;;;;;3.22;1.98;;;;;;;17.55;100.00;102201.78;5006678;28;20046;-45
2024/01/30 07:22:33;;;;;;;3.88;2.00;;;;;;;17.55;100.00;102203.81;5001975;28;20141;-45
2024/01/30 07:25:00;;;;;;;4.38;2.30;;;;;;;17.53;100.00;102209.84;5007550;28;20038;-44
2024/01/30 07:27:26;;;;;;;4.45;2.45;;;;;;;17.54;100.00;102208.63;5002232;28;20142;-43
2024/01/30 07:29:53;;;;;;;6.30;2.13;;;;;;;17.51;100.00;102205.91;4999650;28;20062;-44
2024/01/30 07:32:19;;;;;;;4.97;2.58;;;;;;;17.49;100.00;102217.56;5003377;28;20505;-44
2024/01/30 07:34:46;;;;;;;4.28;2.67;;;;;;;17.49;100.00;102211.16;5006840;28;20057;-45
2024/01/30 07:37:31;;;;;;;8.52;2.78;;;;;;;17.47;100.00;102211.56;5001693;28;20417;-44
2024/01/30 07:39:58;;;;;;;8.75;3.13;;;;;;;17.46;100.00;102212.00;5000810;28;20180;-44
2024/01/30 07:42:25;;;;;;;5.30;2.80;;;;;;;17.45;100.00;102210.41;5007982;28;20046;-44
2024/01/30 07:44:52;;;;;;;6.15;2.70;;;;;;;17.43;100.00;102211.63;5007286;28;20467;-44
2024/01/30 07:47:18;;;;;;;5.72;2.70;;;;;;;17.43;100.00;102214.44;5002247;28;20061;-47
2024/01/30 07:49:45;;;;;;;3.47;2.40;;;;;;;17.43;100.00;102211.63;5003734;28;20049;-45
2024/01/30 07:52:11;;;;;;;7.75;3.15;;;;;;;17.42;100.00;102211.28;5003056;28;20060;-45
2024/01/30 07:54:39;;;;;;;6.25;2.50;;;;;;;17.42;100.00;102216.91;5006733;28;20049;-46
2024/01/30 07:57:06;;;;;;;10.82;4.88;;;;;;;17.39;100.00;102213.72;5003998;28;20045;-45
2024/01/30 07:59:32;;;;;;;15.10;8.27;;;;;;;17.27;100.00;102225.59;5007096;28;20137;-46
2024/01/30 08:01:59;;;;;;;15.10;7.70;;;;;;;17.27;100.00;102227.59;5005879;28;20050;-45
2024/01/30 08:04:25;;;;;;;19.55;8.82;;;;;;;17.24;100.00;102229.25;5004029;28;20093;-45
2024/01/30 08:06:52;;;;;;;13.68;6.70;;;;;;;17.25;100.00;102228.00;5005540;28;20053;-45
2024/01/30 08:09:19;;;;;;;17.25;6.00;;;;;;;17.26;100.00;102232.41;5006248;28;20049;-45
2024/01/30 08:11:45;;;;;;;11.63;5.85;;;;;;;17.29;100.00;102240.00;5002530;28;20092;-44
2024/01/30 08:14:13;;;;;;;11.02;5.18;;;;;;;17.29;100.00;102234.38;5002589;28;20143;-45
2024/01/30 08:16:40;;;;;;;13.30;5.18;;;;;;;17.30;100.00;102238.78;5007040;28;20049;-45
2024/01/30 08:19:07;;;;;;;14.05;5.53;;;;;;;17.30;100.00;102232.38;5005634;28;20056;-43
2024/01/30 08:21:36;;;;;;;14.15;5.93;;;;;;;17.30;100.00;102240.78;5002588;28;20065;-44
2024/01/30 08:24:06;;;;;;;15.40;7.10;;;;;;;17.30;100.00;102240.78;5004296;28;20080;-44
2024/01/30 08:26:33;;;;;;;14.82;6.32;;;;;;;17.30;100.00;102235.16;4997538;28;20501;-44
2024/01/30 08:28:59;;;;;;;15.48;6.28;;;;;;;17.29;100.00;102231.56;5002240;28;20103;-44
2024/01/30 08:31:26;;;;;;;12.88;6.22;;;;;;;17.29;100.00;102230.78;5006187;28;20050;-42
2024/01/30 08:33:53;;;;;;;15.55;6.43;;;;;;;17.29;100.00;102242.81;5000640;28;20054;-44
2024/01/30 08:36:20;;;;;;;12.73;5.93;;;;;;;17.30;100.00;102246.41;5003771;28;20108;-48
2024/01/30 08:38:47;;;;;;;13.43;6.40;;;;;;;17.31;100.00;102245.19;5002717;28;20060;-45
2024/01/30 08:41:13;;;;;;;12.30;5.57;;;;;;;17.32;100.00;102241.94;4998489;28;20054;-46
2024/01/30 08:43:40;;;;;;;12.93;5.75;;;;;;;17.33;100.00;102239.94;5002266;28;20049;-46
2024/01/30 08:46:06;;;;;;;12.73;6.10;;;;;;;17.34;100.00;102238.72;4998690;28;20042;-44
2024/01/30 08:48:33;;;;;;;11.98;5.90;;;;;;;17.34;100.00;102239.53;5002337;28;20054;-47
2024/01/30 08:51:00;;;;;;;12.43;5.28;;;;;;;17.34;100.00;102242.31;5005750;28;20092;-45
2024/01/30 08:53:26;;;;;;;13.35;5.45;;;;;;;17.36;100.00;102242.69;5000712;28;20050;-44
2024/01/30 08:55:53;;;;;;;11.52;5.05;;;;;;;17.36;100.00;102247.53;5005447;28;20045;-43
2024/01/30 08:58:19;;;;;;;10.90;4.93;;;;;;;17.37;100.00;102254.72;5000402;28;20489;-44
2024/01/30 09:00:46;;;;;;;9.63;4.65;;;;;;;17.38;100.00;102249.91;5001477;28;20057;-43
2024/01/30 09:03:13;;;;;;;11.20;5.60;;;;;;;17.38;100.00;102254.31;5004064;28;20046;-45
2024/01/30 09:05:39;;;;;;;12.60;5.38;;;;;;;17.40;100.00;102256.69;5002897;28;20086;-44
2024/01/30 09:08:06;;;;;;;9.80;4.80;;;;;;;17.41;100.00;102246.25;4999508;28;20077;-44
2024/01/30 09:10:33;;;;;;;9.98;4.30;;;;;;;17.41;100.00;102249.84;4997838;28;20050;-43
2024/01/30 09:13:00;;;;;;;12.35;4.78;;;;;;;17.40;100.00;102256.69;5000191;28;20417;-43
2024/01/30 09:15:26;;;;;;;11.50;5.03;;;;;;;17.39;100.00;102255.88;5005787;28;20421;-46
2024/01/30 09:17:53;;;;;;;12.40;5.05;;;;;;;17.39;100.00;102261.50;5000835;28;20141;-43
2024/01/30 09:20:20;;;;;;;10.70;5.32;;;;;;;17.41;100.00;102265.94;5002002;28;20050;-44
2024/01/30 09:22:46;;;;;;;11.68;5.25;;;;;;;17.39;100.00;102264.31;4999944;28;20074;-43
2024/01/30 09:25:13;;;;;;;13.00;4.82;;;;;;;17.40;100.00;102267.94;5003605;28;20116;-43
2024/01/30 09:27:40;;;;;;;12.07;5.28;;;;;;;17.41;100.00;102271.56;5011111;28;20049;-45
2024/01/30 09:30:07;;;;;;;8.52;4.80;;;;;;;17.41;100.00;102282.78;4998950;28;20100;-44
2024/01/30 09:32:34;;;;;;;11.88;5.28;;;;;;;17.42;100.00;102281.56;5003310;28;20069;-45
2024/01/30 09:35:04;;;;;;;8.93;4.70;;;;;;;17.42;100.00;102285.19;5002945;28;20034;-45
2024/01/30 09:37:30;;;;;;;11.55;5.10;;;;;;;17.42;100.00;102284.38;5002100;28;20048;-46
2024/01/30 09:39:57;;;;;;;8.82;4.40;;;;;;;17.42;100.00;102290.00;5004742;28;20499;-44
2024/01/30 09:42:32;;;;;;;10.05;4.75;;;;;;;17.42;100.00;102279.56;5002343;28;20505;-46
2024/01/30 09:44:59;;;;;;;9.93;4.82;;;;;;;17.42;100.00;102273.13;5003911;28;20042;-45
2024/01/30 09:47:26;;;;;;;11.45;4.65;;;;;;;17.42;100.00;102277.53;5002231;28;20594;-44
2024/01/30 09:49:53;;;;;;;11.77;4.43;;;;;;;17.43;100.00;102267.84;5002596;28;20062;-44
2024/01/30 09:52:20;;;;;;;7.88;4.20;;;;;;;17.43;100.00;102267.84;4999895;28;20107;-44
2024/01/30 09:54:49;;;;;;;10.13;4.40;;;;;;;17.42;100.00;102267.50;5004631;28;20644;-44
2024/01/30 09:57:16;;;;;;;9.52;4.60;;;;;;;17.42;100.00;102271.13;5000524;28;20057;-44
2024/01/30 09:59:43;;;;;;;8.48;4.20;;;;;;;17.43;100.00;102255.84;5004346;28;20049;-45
2024/01/30 10:02:10;;;;;;;11.93;4.80;;;;;;;17.43;100.00;102258.66;5012551;28;20046;-44
2024/01/30 10:04:37;;;;;;;12.63;4.55;;;;;;;17.42;100.00;102266.28;5011226;28;20072;-47
2024/01/30 10:07:04;;;;;;;9.60;4.32;;;;;;;17.43;100.00;102267.84;5007665;28;20078;-44
2024/01/30 10:09:34;;;;;;;9.68;4.20;;;;;;;17.42;100.00;102269.09;5001828;28;20049;-43
2024/01/30 10:12:03;;;;;;;7.97;4.20;;;;;;;17.43;100.00;102279.09;5007036;28;20123;-45
2024/01/30 10:14:30;;;;;;;11.77;4.30;;;;;;;17.45;100.00;102272.28;5006986;28;20056;-44
2024/01/30 10:16:58;;;;;;;8.90;4.30;;;;;;;17.47;100.00;102272.63;5006390;28;20064;-43
2024/01/30 10:19:24;;;;;;;8.20;4.30;;;;;;;17.46;100.00;102265.44;5002929;28;20064;-45
2024/01/30 10:21:51;;;;;;;8.85;3.80;;;;;;;17.47;100.00;102267.00;5007327;28;20057;-45
2024/01/30 10:24:18;;;;;;;7.63;4.05;;;;;;;17.48;100.00;102257.38;5005661;28;20042;-43
2024/01/30 10:26:45;;;;;;;11.27;4.22;;;;;;;17.48;100.00;102260.19;5009030;28;20053;-45
2024/01/30 10:29:11;;;;;;;9.90;4.68;;;;;;;17.49;100.00;102261.75;5006990;28;20421;-45
2024/01/30 10:31:38;;;;;;;11.50;4.60;;;;;;;17.48;100.00;102265.81;5005963;28;20077;-47
2024/01/30 10:34:04;;;;;;;10.20;4.72;;;;;;;17.49;100.00;102270.19;5009105;28;20050;-43
2024/01/30 10:36:46;;;;;;;10.43;4.68;;;;;;;17.50;100.00;102264.16;5007070;28;20053;-47
2024/01/30 10:39:17;;;;;;;9.57;4.57;;;;;;;17.52;100.00;102272.97;5005901;28;20061;-44
2024/01/30 10:41:44;;;;;;;8.02;4.10;;;;;;;17.52;100.00;102269.34;5002956;28;20058;-44
2024/01/30 10:44:11;;;;;;;7.90;4.43;;;;;;;17.51;100.00;102265.72;5003271;28;20141;-44
2024/01/30 10:46:39;;;;;;;9.20;4.57;;;;;;;17.50;100.00;102271.78;5006713;28;20050;-46
2024/01/30 10:49:07;;;;;;;11.23;4.35;;;;;;;17.51;100.00;102279.78;5008242;28;20054;-45
2024/01/30 10:51:35;;;;;;;10.32;4.30;;;;;;;17.51;100.00;102276.19;5000989;28;20050;-46
2024/01/30 10:54:04;;;;;;;8.82;4.32;;;;;;;17.52;100.00;102277.78;5003532;28;20501;-43
2024/01/30 10:56:33;;;;;;;8.45;4.28;;;;;;;17.53;100.00;102279.34;5007274;28;20055;-44
2024/01/30 10:59:00;;;;;;;9.70;4.30;;;;;;;17.53;100.00;102285.78;5006080;28;20057;-44
2024/01/30 11:01:28;;;;;;;9.32;4.40;;;;;;;17.53;100.00;102280.16;5006181;28;20045;-45
2024/01/30 11:03:56;;;;;;;8.27;4.20;;;;;;;17.54;100.00;102287.38;5010624;28;20103;-45
2024/01/30 11:06:24;;;;;;;10.77;4.60;;;;;;;17.55;100.00;102288.94;5009650;28;20056;-47
2024/01/30 11:09:09;;;;;;;10.98;4.47;;;;;;;17.55;100.00;102279.72;5006915;28;20053;-44
2024/01/30 11:12:00;;;;;;;8.20;3.97;;;;;;;17.55;100.00;102283.31;5004684;28;20076;-45
2024/01/30 11:14:29;;;;;;;9.25;4.43;;;;;;;17.55;100.00;102282.56;5004993;28;20058;-45
2024/01/30 11:16:59;;;;;;;8.02;4.00;;;;;;;17.55;100.00;102276.94;5001926;28;20033;-47